sensor_id;sensor_type;location;lat;lon;timestamp;pressure;altitude;pressure_sealevel;temperature;humidity
51928;BME280;37953;52.806;18.270;2023-02-28T00:01:19;102169.97;;;0.29;100.00
51928;BME280;37953;52.806;18.270;2023-02-28T00:03:45;102170.66;;;0.26;100.00
51928;BME280;37953;52.806;18.270;2023-02-28T00:06:11;102178.22;;;0.25;100.00
51928;BME280;37953;52.806;18.270;2023-02-28T00:08:37;102171.22;;;0.22;100.00
51928;BME280;37953;52.806;18.270;2023-02-28T00:11:03;102174.66;;;0.23;100.00
51928;BME280;37953;52.806;18.270;2023-02-28T00:13:33;102172.97;;;0.23;100.00
51928;BME280;37953;52.806;18.270;2023-02-28T00:16:00;102172.97;;;0.23;100.00
51928;BME280;37953;52.806;18.270;2023-02-28T00:18:26;102163.56;;;0.22;100.00
51928;BME280;37953;52.806;18.270;2023-02-28T00:20:52;102166.09;;;0.22;100.00
51928;BME280;37953;52.806;18.270;2023-02-28T00:23:17;102168.66;;;0.22;100.00
51928;BME280;37953;52.806;18.270;2023-02-28T00:25:43;102172.66;;;0.18;100.00
51928;BME280;37953;52.806;18.270;2023-02-28T00:28:10;102173.31;;;0.16;100.00
51928;BME280;37953;52.806;18.270;2023-02-28T00:30:36;102169.78;;;0.14;100.00
51928;BME280;37953;52.806;18.270;2023-02-28T00:33:01;102175.75;;;0.14;100.00
51928;BME280;37953;52.806;18.270;2023-02-28T00:35:27;102173.13;;;0.13;100.00
51928;BME280;37953;52.806;18.270;2023-02-28T00:37:56;102175.69;;;0.13;100.00
51928;BME280;37953;52.806;18.270;2023-02-28T00:40:22;102177.13;;;0.09;100.00
51928;BME280;37953;52.806;18.270;2023-02-28T00:42:50;102179.53;;;0.08;100.00
51928;BME280;37953;52.806;18.270;2023-02-28T00:45:16;102179.22;;;0.03;100.00
51928;BME280;37953;52.806;18.270;2023-02-28T00:47:41;102178.88;;;-0.02;100.00
51928;BME280;37953;52.806;18.270;2023-02-28T00:50:07;102172.78;;;-0.04;100.00
51928;BME280;37953;52.806;18.270;2023-02-28T00:52:33;102179.44;;;-0.06;100.00
51928;BME280;37953;52.806;18.270;2023-02-28T00:54:59;102181.00;;;-0.08;100.00
51928;BME280;37953;52.806;18.270;2023-02-28T00:57:25;102181.00;;;-0.08;100.00
51928;BME280;37953;52.806;18.270;2023-02-28T00:59:52;102184.44;;;-0.07;100.00
51928;BME280;37953;52.806;18.270;2023-02-28T01:02:20;102183.53;;;-0.08;100.00
51928;BME280;37953;52.806;18.270;2023-02-28T01:04:46;102184.31;;;-0.09;100.00
51928;BME280;37953;52.806;18.270;2023-02-28T01:07:12;102184.31;;;-0.09;100.00
51928;BME280;37953;52.806;18.270;2023-02-28T01:09:40;102178.09;;;-0.12;100.00
51928;BME280;37953;52.806;18.270;2023-02-28T01:12:06;102178.09;;;-0.12;100.00
51928;BME280;37953;52.806;18.270;2023-02-28T01:14:33;102177.31;;;-0.11;100.00
51928;BME280;37953;52.806;18.270;2023-02-28T01:16:59;102176.44;;;-0.12;100.00
51928;BME280;37953;52.806;18.270;2023-02-28T01:19:25;102176.31;;;-0.13;100.00
51928;BME280;37953;52.806;18.270;2023-02-28T01:21:51;102177.19;;;-0.13;100.00
51928;BME280;37953;52.806;18.270;2023-02-28T01:24:17;102175.56;;;-0.12;100.00
51928;BME280;37953;52.806;18.270;2023-02-28T01:26:42;102172.09;;;-0.13;100.00
51928;BME280;37953;52.806;18.270;2023-02-28T01:29:08;102176.19;;;-0.15;100.00
51928;BME280;37953;52.806;18.270;2023-02-28T01:31:34;102176.09;;;-0.16;100.00
51928;BME280;37953;52.806;18.270;2023-02-28T01:34:00;102178.53;;;-0.18;100.00
51928;BME280;37953;52.806;18.270;2023-02-28T01:36:26;102172.41;;;-0.20;100.00
51928;BME280;37953;52.806;18.270;2023-02-28T01:38:52;102172.41;;;-0.20;100.00
51928;BME280;37953;52.806;18.270;2023-02-28T01:41:19;102167.09;;;-0.23;100.00
51928;BME280;37953;52.806;18.270;2023-02-28T01:46:11;102174.66;;;-0.25;100.00
51928;BME280;37953;52.806;18.270;2023-02-28T01:48:49;102172.09;;;-0.25;100.00
51928;BME280;37953;52.806;18.270;2023-02-28T01:51:35;102172.97;;;-0.24;100.00
51928;BME280;37953;52.806;18.270;2023-02-28T01:54:27;102174.75;;;-0.23;100.00
51928;BME280;37953;52.806;18.270;2023-02-28T01:56:54;102177.19;;;-0.25;100.00
51928;BME280;37953;52.806;18.270;2023-02-28T01:59:24;102177.06;;;-0.26;100.00
51928;BME280;37953;52.806;18.270;2023-02-28T02:01:52;102173.50;;;-0.28;100.00
51928;BME280;37953;52.806;18.270;2023-02-28T02:04:19;102169.06;;;-0.31;100.00
51928;BME280;37953;52.806;18.270;2023-02-28T02:06:46;102167.94;;;-0.34;100.00
51928;BME280;37953;52.806;18.270;2023-02-28T02:09:13;102170.41;;;-0.36;100.00
51928;BME280;37953;52.806;18.270;2023-02-28T02:11:39;102174.59;;;-0.36;100.00
51928;BME280;37953;52.806;18.270;2023-02-28T02:24:50;102169.84;;;-0.44;100.00
51928;BME280;37953;52.806;18.270;2023-02-28T02:32:49;102173.25;;;-0.55;100.00
51928;BME280;37953;52.806;18.270;2023-02-28T02:35:38;102179.13;;;-0.56;100.00
51928;BME280;37953;52.806;18.270;2023-02-28T02:40:43;102172.25;;;-0.57;100.00
51928;BME280;37953;52.806;18.270;2023-02-28T02:45:58;102172.78;;;-0.61;100.00
51928;BME280;37953;52.806;18.270;2023-02-28T02:48:31;102173.56;;;-0.62;100.00
51928;BME280;37953;52.806;18.270;2023-02-28T02:50:59;102171.88;;;-0.62;100.00
51928;BME280;37953;52.806;18.270;2023-02-28T02:53:30;102171.88;;;-0.62;100.00
51928;BME280;37953;52.806;18.270;2023-02-28T02:55:58;102176.09;;;-0.62;100.00
51928;BME280;37953;52.806;18.270;2023-02-28T02:58:26;102172.66;;;-0.63;100.00
51928;BME280;37953;52.806;18.270;2023-02-28T03:00:56;102166.78;;;-0.62;100.00
51928;BME280;37953;52.806;18.270;2023-02-28T03:03:23;102163.34;;;-0.62;100.00
51928;BME280;37953;52.806;18.270;2023-02-28T03:05:57;102164.81;;;-0.66;100.00
51928;BME280;37953;52.806;18.270;2023-02-28T03:08:23;102159.56;;;-0.67;100.00
51928;BME280;37953;52.806;18.270;2023-02-28T03:10:56;102165.44;;;-0.68;100.00
51928;BME280;37953;52.806;18.270;2023-02-28T03:16:11;102164.88;;;-0.76;100.00
51928;BME280;37953;52.806;18.270;2023-02-28T03:18:52;102169.59;;;-0.80;100.00
51928;BME280;37953;52.806;18.270;2023-02-28T03:24:06;102177.91;;;-0.83;100.00
51928;BME280;37953;52.806;18.270;2023-02-28T03:26:34;102174.50;;;-0.84;100.00
51928;BME280;37953;52.806;18.270;2023-02-28T03:29:07;102176.91;;;-0.85;100.00
51928;BME280;37953;52.806;18.270;2023-02-28T03:31:39;102181.13;;;-0.86;100.00
51928;BME280;37953;52.806;18.270;2023-02-28T03:36:52;102187.03;;;-0.87;100.00
51928;BME280;37953;52.806;18.270;2023-02-28T03:39:23;102187.91;;;-0.86;100.00
51928;BME280;37953;52.806;18.270;2023-02-28T03:41:54;102191.34;;;-0.86;100.00
51928;BME280;37953;52.806;18.270;2023-02-28T03:44:24;102197.09;;;-0.88;100.00
51928;BME280;37953;52.806;18.270;2023-02-28T03:46:53;102191.13;;;-0.89;100.00
51928;BME280;37953;52.806;18.270;2023-02-28T03:49:35;102192.66;;;-0.91;100.00
51928;BME280;37953;52.806;18.270;2023-02-28T03:52:03;102192.75;;;-0.89;100.00
51928;BME280;37953;52.806;18.270;2023-02-28T03:54:30;102191.75;;;-0.91;100.00
51928;BME280;37953;52.806;18.270;2023-02-28T03:56:59;102184.00;;;-0.93;100.00
51928;BME280;37953;52.806;18.270;2023-02-28T03:59:29;102188.19;;;-0.93;100.00
51928;BME280;37953;52.806;18.270;2023-02-28T04:02:00;102193.28;;;-0.93;100.00
51928;BME280;37953;52.806;18.270;2023-02-28T04:04:26;102201.59;;;-0.96;100.00
51928;BME280;37953;52.806;18.270;2023-02-28T04:06:52;102201.38;;;-0.99;100.00
51928;BME280;37953;52.806;18.270;2023-02-28T04:09:18;102193.59;;;-1.00;100.00
51928;BME280;37953;52.806;18.270;2023-02-28T04:11:51;102202.91;;;-1.01;100.00
51928;BME280;37953;52.806;18.270;2023-02-28T04:14:17;102203.69;;;-1.02;100.00
51928;BME280;37953;52.806;18.270;2023-02-28T04:16:44;102206.13;;;-1.04;100.00
51928;BME280;37953;52.806;18.270;2023-02-28T04:19:10;102202.31;;;-1.09;100.00
51928;BME280;37953;52.806;18.270;2023-02-28T04:21:40;102203.09;;;-1.10;100.00
51928;BME280;37953;52.806;18.270;2023-02-28T04:24:07;102213.94;;;-1.12;100.00
51928;BME280;37953;52.806;18.270;2023-02-28T04:26:36;102216.47;;;-1.12;100.00
51928;BME280;37953;52.806;18.270;2023-02-28T04:29:05;102214.59;;;-1.15;100.00
51928;BME280;37953;52.806;18.270;2023-02-28T04:31:31;102211.16;;;-1.15;100.00
51928;BME280;37953;52.806;18.270;2023-02-28T04:33:57;102220.34;;;-1.17;100.00
51928;BME280;37953;52.806;18.270;2023-02-28T04:36:23;102213.47;;;-1.18;100.00
51928;BME280;37953;52.806;18.270;2023-02-28T04:38:49;102213.22;;;-1.21;100.00
51928;BME280;37953;52.806;18.270;2023-02-28T04:41:15;102222.28;;;-1.25;100.00
51928;BME280;37953;52.806;18.270;2023-02-28T04:43:41;102223.81;;;-1.27;100.00
51928;BME280;37953;52.806;18.270;2023-02-28T04:46:08;102233.13;;;-1.28;100.00
51928;BME280;37953;52.806;18.270;2023-02-28T04:48:35;102227.16;;;-1.28;100.00
51928;BME280;37953;52.806;18.270;2023-02-28T04:51:09;102228.91;;;-1.27;100.00
51928;BME280;37953;52.806;18.270;2023-02-28T04:53:36;102227.03;;;-1.30;100.00
51928;BME280;37953;52.806;18.270;2023-02-28T04:56:08;102220.81;;;-1.33;100.00
51928;BME280;37953;52.806;18.270;2023-02-28T04:58:39;102225.91;;;-1.33;100.00
51928;BME280;37953;52.806;18.270;2023-02-28T05:01:07;102231.63;;;-1.36;100.00
51928;BME280;37953;52.806;18.270;2023-02-28T05:03:45;102225.53;;;-1.38;100.00
51928;BME280;37953;52.806;18.270;2023-02-28T05:06:12;102233.97;;;-1.39;100.00
51928;BME280;37953;52.806;18.270;2023-02-28T05:08:52;102235.63;;;-1.39;100.00
51928;BME280;37953;52.806;18.270;2023-02-28T05:11:19;102235.63;;;-1.39;100.00
51928;BME280;37953;52.806;18.270;2023-02-28T05:13:45;102238.19;;;-1.39;100.00
51928;BME280;37953;52.806;18.270;2023-02-28T05:16:11;102245.81;;;-1.39;100.00
51928;BME280;37953;52.806;18.270;2023-02-28T05:18:37;102244.81;;;-1.41;100.00
51928;BME280;37953;52.806;18.270;2023-02-28T05:21:03;102238.69;;;-1.44;100.00
51928;BME280;37953;52.806;18.270;2023-02-28T05:23:29;102238.56;;;-1.45;100.00
51928;BME280;37953;52.806;18.270;2023-02-28T05:25:55;102238.44;;;-1.47;100.00
51928;BME280;37953;52.806;18.270;2023-02-28T05:28:21;102243.31;;;-1.50;100.00
51928;BME280;37953;52.806;18.270;2023-02-28T05:30:47;102239.75;;;-1.52;100.00
51928;BME280;37953;52.806;18.270;2023-02-28T05:33:13;102249.06;;;-1.52;100.00
51928;BME280;37953;52.806;18.270;2023-02-28T05:35:39;102243.31;;;-1.50;100.00
51928;BME280;37953;52.806;18.270;2023-02-28T05:38:05;102249.50;;;-1.46;100.00
51928;BME280;37953;52.806;18.270;2023-02-28T05:40:31;102249.78;;;-1.43;100.00
51928;BME280;37953;52.806;18.270;2023-02-28T05:42:57;102253.47;;;-1.39;100.00
51928;BME280;37953;52.806;18.270;2023-02-28T05:45:23;102249.25;;;-1.39;100.00
51928;BME280;37953;52.806;18.270;2023-02-28T05:47:49;102255.38;;;-1.37;100.00
51928;BME280;37953;52.806;18.270;2023-02-28T05:50:18;102253.84;;;-1.35;100.00
51928;BME280;37953;52.806;18.270;2023-02-28T05:52:44;102249.75;;;-1.33;100.00
51928;BME280;37953;52.806;18.270;2023-02-28T05:55:10;102254.84;;;-1.33;100.00
51928;BME280;37953;52.806;18.270;2023-02-28T05:57:35;102253.03;;;-1.34;100.00
51928;BME280;37953;52.806;18.270;2023-02-28T06:00:02;102250.50;;;-1.34;100.00
51928;BME280;37953;52.806;18.270;2023-02-28T06:02:27;102253.84;;;-1.35;100.00
51928;BME280;37953;52.806;18.270;2023-02-28T06:04:53;102247.94;;;-1.34;100.00
51928;BME280;37953;52.806;18.270;2023-02-28T06:07:19;102254.84;;;-1.33;100.00
51928;BME280;37953;52.806;18.270;2023-02-28T06:09:45;102255.94;;;-1.29;100.00
51928;BME280;37953;52.806;18.270;2023-02-28T06:12:11;102261.19;;;-1.28;100.00
51928;BME280;37953;52.806;18.270;2023-02-28T06:14:37;102260.44;;;-1.27;100.00
51928;BME280;37953;52.806;18.270;2023-02-28T06:17:03;102264.09;;;-1.23;100.00
51928;BME280;37953;52.806;18.270;2023-02-28T06:19:29;102265.09;;;-1.21;100.00
51928;BME280;37953;52.806;18.270;2023-02-28T06:21:56;102263.47;;;-1.20;100.00
51928;BME280;37953;52.806;18.270;2023-02-28T06:24:23;102270.47;;;-1.18;100.00
51928;BME280;37953;52.806;18.270;2023-02-28T06:26:49;102265.50;;;-1.16;100.00
51928;BME280;37953;52.806;18.270;2023-02-28T06:29:15;102270.69;;;-1.15;100.00
51928;BME280;37953;52.806;18.270;2023-02-28T06:31:47;102266.59;;;-1.13;100.00
51928;BME280;37953;52.806;18.270;2023-02-28T06:34:19;102268.41;;;-1.12;100.00
51928;BME280;37953;52.806;18.270;2023-02-28T06:36:44;102268.50;;;-1.10;100.00
51928;BME280;37953;52.806;18.270;2023-02-28T06:39:11;102269.50;;;-1.08;100.00
51928;BME280;37953;52.806;18.270;2023-02-28T06:41:39;102276.63;;;-1.04;100.00
51928;BME280;37953;52.806;18.270;2023-02-28T06:44:10;102274.34;;;-1.01;100.00
51928;BME280;37953;52.806;18.270;2023-02-28T06:46:38;102269.59;;;-0.96;100.00
51928;BME280;37953;52.806;18.270;2023-02-28T06:49:05;102272.38;;;-0.93;100.00
51928;BME280;37953;52.806;18.270;2023-02-28T06:51:34;102271.84;;;-0.89;100.00
51928;BME280;37953;52.806;18.270;2023-02-28T06:54:00;102263.66;;;-0.85;100.00
51928;BME280;37953;52.806;18.270;2023-02-28T06:56:26;102267.34;;;-0.82;100.00
51928;BME280;37953;52.806;18.270;2023-02-28T06:58:52;102271.91;;;-0.77;100.00
51928;BME280;37953;52.806;18.270;2023-02-28T07:01:18;102270.38;;;-0.75;100.00
51928;BME280;37953;52.806;18.270;2023-02-28T07:03:45;102273.28;;;-0.71;100.00
51928;BME280;37953;52.806;18.270;2023-02-28T07:06:11;102275.31;;;-0.67;100.00
51928;BME280;37953;52.806;18.270;2023-02-28T07:08:37;102273.97;;;-0.62;100.00
51928;BME280;37953;52.806;18.270;2023-02-28T07:11:02;102277.66;;;-0.58;100.00
51928;BME280;37953;52.806;18.270;2023-02-28T07:13:29;102278.13;;;-0.52;100.00
51928;BME280;37953;52.806;18.270;2023-02-28T07:18:20;102272.72;;;-0.45;100.00
51928;BME280;37953;52.806;18.270;2023-02-28T07:20:46;102270.53;;;-0.40;100.00
51928;BME280;37953;52.806;18.270;2023-02-28T07:23:12;102280.22;;;-0.36;100.00
51928;BME280;37953;52.806;18.270;2023-02-28T07:25:38;102273.66;;;-0.32;100.00
51928;BME280;37953;52.806;18.270;2023-02-28T07:28:05;102274.00;;;-0.28;100.00
51928;BME280;37953;52.806;18.270;2023-02-28T07:30:30;102269.25;;;-0.23;100.00
51928;BME280;37953;52.806;18.270;2023-02-28T07:32:56;102265.25;;;-0.19;100.00
51928;BME280;37953;52.806;18.270;2023-02-28T07:35:22;102270.59;;;-0.16;100.00
51928;BME280;37953;52.806;18.270;2023-02-28T07:37:48;102268.28;;;-0.13;100.00
51928;BME280;37953;52.806;18.270;2023-02-28T07:40:14;102266.97;;;-0.08;100.00
51928;BME280;37953;52.806;18.270;2023-02-28T07:42:40;102264.75;;;-0.04;100.00
51928;BME280;37953;52.806;18.270;2023-02-28T07:45:07;102264.19;;;0.01;100.00
51928;BME280;37953;52.806;18.270;2023-02-28T07:47:34;102266.97;;;0.04;100.00
51928;BME280;37953;52.806;18.270;2023-02-28T07:49:59;102261.31;;;0.08;100.00
51928;BME280;37953;52.806;18.270;2023-02-28T07:52:25;102265.75;;;0.10;100.00
51928;BME280;37953;52.806;18.270;2023-02-28T07:54:51;102270.31;;;0.14;100.00
51928;BME280;37953;52.806;18.270;2023-02-28T07:57:24;102263.78;;;0.18;100.00
51928;BME280;37953;52.806;18.270;2023-02-28T07:59:50;102269.09;;;0.21;100.00
51928;BME280;37953;52.806;18.270;2023-02-28T08:02:17;102266.78;;;0.24;100.00
51928;BME280;37953;52.806;18.270;2023-02-28T08:04:44;102268.78;;;0.28;100.00
51928;BME280;37953;52.806;18.270;2023-02-28T08:07:12;102265.56;;;0.31;100.00
51928;BME280;37953;52.806;18.270;2023-02-28T08:09:42;102268.31;;;0.34;100.00
51928;BME280;37953;52.806;18.270;2023-02-28T08:12:14;102266.91;;;0.37;100.00
51928;BME280;37953;52.806;18.270;2023-02-28T08:14:40;102262.78;;;0.39;100.00
51928;BME280;37953;52.806;18.270;2023-02-28T08:17:06;102278.38;;;0.43;100.00
51928;BME280;37953;52.806;18.270;2023-02-28T08:19:32;102276.81;;;0.45;100.00
51928;BME280;37953;52.806;18.270;2023-02-28T08:21:58;102280.47;;;0.48;100.00
51928;BME280;37953;52.806;18.270;2023-02-28T08:24:24;102284.00;;;0.50;100.00
51928;BME280;37953;52.806;18.270;2023-02-28T08:26:50;102291.94;;;0.53;100.00
51928;BME280;37953;52.806;18.270;2023-02-28T08:29:18;102286.13;;;0.56;100.00
51928;BME280;37953;52.806;18.270;2023-02-28T08:31:44;102294.81;;;0.58;100.00
51928;BME280;37953;52.806;18.270;2023-02-28T08:34:11;102284.78;;;0.61;100.00
51928;BME280;37953;52.806;18.270;2023-02-28T08:36:38;102293.59;;;0.65;100.00
51928;BME280;37953;52.806;18.270;2023-02-28T08:39:04;102300.59;;;0.67;100.00
51928;BME280;37953;52.806;18.270;2023-02-28T08:41:30;102298.25;;;0.70;100.00
51928;BME280;37953;52.806;18.270;2023-02-28T08:43:56;102303.59;;;0.73;100.00
51928;BME280;37953;52.806;18.270;2023-02-28T08:46:22;102297.72;;;0.74;100.00
51928;BME280;37953;52.806;18.270;2023-02-28T08:48:51;102297.03;;;0.77;100.00
51928;BME280;37953;52.806;18.270;2023-02-28T08:51:17;102300.59;;;0.79;100.00
51928;BME280;37953;52.806;18.270;2023-02-28T08:53:46;102300.72;;;0.80;100.00
51928;BME280;37953;52.806;18.270;2023-02-28T08:56:15;102298.22;;;0.82;100.00
51928;BME280;37953;52.806;18.270;2023-02-28T08:58:42;102294.91;;;0.83;100.00
51928;BME280;37953;52.806;18.270;2023-02-28T09:03:43;102291.88;;;0.89;100.00
51928;BME280;37953;52.806;18.270;2023-02-28T09:06:11;102297.25;;;0.92;100.00
51928;BME280;37953;52.806;18.270;2023-02-28T09:08:37;102291.56;;;0.96;100.00
51928;BME280;37953;52.806;18.270;2023-02-28T09:11:03;102299.56;;;1.00;100.00
51928;BME280;37953;52.806;18.270;2023-02-28T09:13:29;102288.63;;;1.03;100.00
51928;BME280;37953;52.806;18.270;2023-02-28T09:15:59;102295.00;;;1.08;100.00
51928;BME280;37953;52.806;18.270;2023-02-28T09:18:25;102285.06;;;1.13;100.00
51928;BME280;37953;52.806;18.270;2023-02-28T09:21:05;102288.72;;;1.16;100.00
51928;BME280;37953;52.806;18.270;2023-02-28T09:23:31;102285.59;;;1.20;100.00
51928;BME280;37953;52.806;18.270;2023-02-28T09:25:57;102280.81;;;1.25;100.00
51928;BME280;37953;52.806;18.270;2023-02-28T09:28:23;102286.25;;;1.30;100.00
51928;BME280;37953;52.806;18.270;2023-02-28T09:30:53;102284.00;;;1.34;100.00
51928;BME280;37953;52.806;18.270;2023-02-28T09:33:19;102276.63;;;1.39;100.00
51928;BME280;37953;52.806;18.270;2023-02-28T09:35:56;102274.31;;;1.42;100.00
51928;BME280;37953;52.806;18.270;2023-02-28T09:38:23;102275.38;;;1.46;100.00
51928;BME280;37953;52.806;18.270;2023-02-28T09:40:50;102277.38;;;1.50;100.00
51928;BME280;37953;52.806;18.270;2023-02-28T09:43:23;102277.59;;;1.53;100.00
51928;BME280;37953;52.806;18.270;2023-02-28T09:45:55;102280.47;;;1.57;100.00
51928;BME280;37953;52.806;18.270;2023-02-28T09:48:28;102281.47;;;1.59;100.00
51928;BME280;37953;52.806;18.270;2023-02-28T09:50:57;102279.09;;;1.62;100.00
51928;BME280;37953;52.806;18.270;2023-02-28T09:53:29;102285.31;;;1.66;100.00
51928;BME280;37953;52.806;18.270;2023-02-28T09:56:04;102290.75;;;1.71;100.00
51928;BME280;37953;52.806;18.270;2023-02-28T09:58:35;102289.28;;;1.74;100.00
51928;BME280;37953;52.806;18.270;2023-02-28T10:01:06;102286.16;;;1.78;100.00
51928;BME280;37953;52.806;18.270;2023-02-28T10:03:56;102291.59;;;1.83;100.00
51928;BME280;37953;52.806;18.270;2023-02-28T10:06:21;102297.91;;;1.88;100.00
51928;BME280;37953;52.806;18.270;2023-02-28T10:09:04;102290.53;;;1.93;100.00
51928;BME280;37953;52.806;18.270;2023-02-28T10:11:35;102288.47;;;2.00;100.00
51928;BME280;37953;52.806;18.270;2023-02-28T10:14:04;102288.13;;;2.08;100.00
51928;BME280;37953;52.806;18.270;2023-02-28T10:19:10;102289.69;;;2.19;100.00
51928;BME280;37953;52.806;18.270;2023-02-28T10:21:54;102280.53;;;2.22;100.00
51928;BME280;37953;52.806;18.270;2023-02-28T10:24:34;102269.59;;;2.25;100.00
51928;BME280;37953;52.806;18.270;2023-02-28T10:27:06;102269.78;;;2.28;100.00
51928;BME280;37953;52.806;18.270;2023-02-28T10:29:54;102266.53;;;2.31;100.00
51928;BME280;37953;52.806;18.270;2023-02-28T10:32:25;102258.16;;;2.33;100.00
51928;BME280;37953;52.806;18.270;2023-02-28T10:34:57;102260.91;;;2.36;100.00
51928;BME280;37953;52.806;18.270;2023-02-28T10:37:23;102261.22;;;2.41;100.00
51928;BME280;37953;52.806;18.270;2023-02-28T10:39:48;102258.06;;;2.45;100.00
51928;BME280;37953;52.806;18.270;2023-02-28T10:42:22;102249.88;;;2.51;100.00
51928;BME280;37953;52.806;18.270;2023-02-28T10:47:36;102255.50;;;2.58;100.00
51928;BME280;37953;52.806;18.270;2023-02-28T10:50:23;102252.34;;;2.62;100.00
51928;BME280;37953;52.806;18.270;2023-02-28T10:52:53;102253.63;;;2.69;100.00
51928;BME280;37953;52.806;18.270;2023-02-28T10:55:22;102245.41;;;2.75;100.00
51928;BME280;37953;52.806;18.270;2023-02-28T10:57:50;102241.47;;;2.80;100.00
51928;BME280;37953;52.806;18.270;2023-02-28T11:00:18;102241.75;;;2.84;100.00
51928;BME280;37953;52.806;18.270;2023-02-28T11:02:44;102242.91;;;2.90;100.00
51928;BME280;37953;52.806;18.270;2023-02-28T11:10:43;102248.22;;;3.06;100.00
51928;BME280;37953;52.806;18.270;2023-02-28T11:13:16;102251.16;;;3.12;100.00
51928;BME280;37953;52.806;18.270;2023-02-28T11:15:51;102243.03;;;3.19;100.00
51928;BME280;37953;52.806;18.270;2023-02-28T11:18:20;102240.75;;;3.24;100.00
51928;BME280;37953;52.806;18.270;2023-02-28T11:20:50;102235.91;;;3.29;99.63
51928;BME280;37953;52.806;18.270;2023-02-28T11:23:17;102230.75;;;3.29;98.35
51928;BME280;37953;52.806;18.270;2023-02-28T11:25:52;102228.38;;;3.32;97.81
51928;BME280;37953;52.806;18.270;2023-02-28T11:28:33;102228.63;;;3.36;98.96
51928;BME280;37953;52.806;18.270;2023-02-28T11:31:00;102223.81;;;3.41;99.66
51928;BME280;37953;52.806;18.270;2023-02-28T11:33:28;102224.94;;;3.46;99.55
51928;BME280;37953;52.806;18.270;2023-02-28T11:36:00;102222.56;;;3.49;99.27
51928;BME280;37953;52.806;18.270;2023-02-28T11:38:26;102219.38;;;3.53;99.17
51928;BME280;37953;52.806;18.270;2023-02-28T11:43:22;102226.56;;;3.59;98.15
51928;BME280;37953;52.806;18.270;2023-02-28T11:48:37;102226.06;;;3.64;98.81
51928;BME280;37953;52.806;18.270;2023-02-28T11:51:21;102221.09;;;3.67;99.90
51928;BME280;37953;52.806;18.270;2023-02-28T11:53:50;102215.34;;;3.72;99.90
51928;BME280;37953;52.806;18.270;2023-02-28T11:59:07;102215.59;;;3.76;99.79
51928;BME280;37953;52.806;18.270;2023-02-28T12:11:45;102205.16;;;3.88;99.65
51928;BME280;37953;52.806;18.270;2023-02-28T12:17:20;102195.03;;;3.91;99.23
51928;BME280;37953;52.806;18.270;2023-02-28T12:27:33;102198.41;;;4.05;99.68
51928;BME280;37953;52.806;18.270;2023-02-28T12:32:48;102190.13;;;4.11;98.26
51928;BME280;37953;52.806;18.270;2023-02-28T12:35:19;102190.31;;;4.14;97.53
51928;BME280;37953;52.806;18.270;2023-02-28T12:37:51;102185.34;;;4.17;96.63
51928;BME280;37953;52.806;18.270;2023-02-28T12:40:21;102189.78;;;4.19;95.81
51928;BME280;37953;52.806;18.270;2023-02-28T12:43:02;102186.50;;;4.22;95.88
51928;BME280;37953;52.806;18.270;2023-02-28T12:45:43;102185.00;;;4.25;94.53
51928;BME280;37953;52.806;18.270;2023-02-28T12:48:13;102177.53;;;4.30;94.28
51928;BME280;37953;52.806;18.270;2023-02-28T12:50:40;102181.06;;;4.32;92.77
51928;BME280;37953;52.806;18.270;2023-02-28T12:53:07;102177.59;;;4.32;91.16
51928;BME280;37953;52.806;18.270;2023-02-28T12:55:40;102175.13;;;4.33;90.25
51928;BME280;37953;52.806;18.270;2023-02-28T13:08:52;102161.63;;;4.37;87.69
51928;BME280;37953;52.806;18.270;2023-02-28T13:11:30;102172.78;;;4.38;84.66
51928;BME280;37953;52.806;18.270;2023-02-28T13:13:58;102165.88;;;4.37;83.89
51928;BME280;37953;52.806;18.270;2023-02-28T13:16:24;102162.59;;;4.39;84.47
51928;BME280;37953;52.806;18.270;2023-02-28T13:18:50;102160.09;;;4.41;85.92
51928;BME280;37953;52.806;18.270;2023-02-28T13:21:23;102152.53;;;4.44;87.84
51928;BME280;37953;52.806;18.270;2023-02-28T13:26:22;102139.13;;;4.49;86.64
51928;BME280;37953;52.806;18.270;2023-02-28T13:31:14;102134.97;;;4.52;84.72
51928;BME280;37953;52.806;18.270;2023-02-28T13:38:45;102130.38;;;4.62;84.46
51928;BME280;37953;52.806;18.270;2023-02-28T13:46:25;102128.78;;;4.64;86.40
51928;BME280;37953;52.806;18.270;2023-02-28T13:48:50;102118.47;;;4.64;86.69
51928;BME280;37953;52.806;18.270;2023-02-28T13:51:50;102126.22;;;4.64;86.53
51928;BME280;37953;52.806;18.270;2023-02-28T13:56:50;102104.56;;;4.61;86.85
51928;BME280;37953;52.806;18.270;2023-02-28T13:59:26;102104.50;;;4.59;86.69
51928;BME280;37953;52.806;18.270;2023-02-28T14:07:18;102089.28;;;4.47;87.16
51928;BME280;37953;52.806;18.270;2023-02-28T14:09:46;102097.78;;;4.46;88.21
51928;BME280;37953;52.806;18.270;2023-02-28T14:12:58;102088.31;;;4.45;89.57
51928;BME280;37953;52.806;18.270;2023-02-28T14:15:04;102086.47;;;4.43;89.33
51928;BME280;37953;52.806;18.270;2023-02-28T14:17:55;102094.19;;;4.43;90.70
51928;BME280;37953;52.806;18.270;2023-02-28T14:20:22;102085.59;;;4.42;90.98
51928;BME280;37953;52.806;18.270;2023-02-28T14:25:45;102066.75;;;4.43;91.25
51928;BME280;37953;52.806;18.270;2023-02-28T14:31:09;102075.28;;;4.42;91.77
51928;BME280;37953;52.806;18.270;2023-02-28T14:41:23;102068.22;;;4.38;92.37
51928;BME280;37953;52.806;18.270;2023-02-28T14:43:54;102069.00;;;4.37;92.38
51928;BME280;37953;52.806;18.270;2023-02-28T14:46:20;102063.84;;;4.37;92.29
51928;BME280;37953;52.806;18.270;2023-02-28T14:48:48;102073.16;;;4.35;93.09
51928;BME280;37953;52.806;18.270;2023-02-28T14:51:18;102064.56;;;4.35;92.18
51928;BME280;37953;52.806;18.270;2023-02-28T14:53:51;102068.84;;;4.34;92.27